sensor_id;sensor_type;location;lat;lon;timestamp;P1;durP1;ratioP1;P2;durP2;ratioP2
15271;SDS011;7737;51.578;7.268;2023-04-03T00:00:21;9.23;;;5.97;;
15271;SDS011;7737;51.578;7.268;2023-04-03T00:02:47;7.00;;;6.30;;
15271;SDS011;7737;51.578;7.268;2023-04-03T00:05:15;6.60;;;5.73;;
15271;SDS011;7737;51.578;7.268;2023-04-03T00:07:41;6.30;;;5.70;;
15271;SDS011;7737;51.578;7.268;2023-04-03T00:10:08;7.97;;;6.33;;
15271;SDS011;7737;51.578;7.268;2023-04-03T00:12:35;7.00;;;5.83;;
15271;SDS011;7737;51.578;7.268;2023-04-03T00:15:02;8.37;;;5.77;;
15271;SDS011;7737;51.578;7.268;2023-04-03T00:17:29;8.73;;;6.10;;
15271;SDS011;7737;51.578;7.268;2023-04-03T00:19:55;7.07;;;6.33;;
15271;SDS011;7737;51.578;7.268;2023-04-03T00:22:23;7.40;;;6.57;;
15271;SDS011;7737;51.578;7.268;2023-04-03T00:24:51;8.50;;;6.90;;
15271;SDS011;7737;51.578;7.268;2023-04-03T00:27:18;8.23;;;6.50;;
15271;SDS011;7737;51.578;7.268;2023-04-03T00:29:44;8.73;;;6.80;;
15271;SDS011;7737;51.578;7.268;2023-04-03T00:32:11;8.07;;;6.20;;
15271;SDS011;7737;51.578;7.268;2023-04-03T00:34:38;9.03;;;5.63;;
15271;SDS011;7737;51.578;7.268;2023-04-03T00:37:04;7.20;;;5.90;;
15271;SDS011;7737;51.578;7.268;2023-04-03T00:39:32;8.77;;;6.10;;
15271;SDS011;7737;51.578;7.268;2023-04-03T00:41:58;8.53;;;6.03;;
15271;SDS011;7737;51.578;7.268;2023-04-03T00:47:25;7.90;;;5.90;;
15271;SDS011;7737;51.578;7.268;2023-04-03T00:49:53;7.93;;;5.80;;
15271;SDS011;7737;51.578;7.268;2023-04-03T00:52:21;8.40;;;6.30;;
15271;SDS011;7737;51.578;7.268;2023-04-03T00:54:53;8.73;;;5.27;;
15271;SDS011;7737;51.578;7.268;2023-04-03T00:57:23;8.37;;;5.20;;
15271;SDS011;7737;51.578;7.268;2023-04-03T00:59:50;6.10;;;4.63;;
15271;SDS011;7737;51.578;7.268;2023-04-03T01:02:23;6.67;;;4.40;;
15271;SDS011;7737;51.578;7.268;2023-04-03T01:04:50;6.73;;;4.37;;
15271;SDS011;7737;51.578;7.268;2023-04-03T01:07:18;6.10;;;4.30;;
15271;SDS011;7737;51.578;7.268;2023-04-03T01:09:47;5.07;;;3.30;;
15271;SDS011;7737;51.578;7.268;2023-04-03T01:12:18;5.97;;;3.37;;
15271;SDS011;7737;51.578;7.268;2023-04-03T01:14:47;5.63;;;3.43;;
15271;SDS011;7737;51.578;7.268;2023-04-03T01:17:29;8.03;;;3.20;;
15271;SDS011;7737;51.578;7.268;2023-04-03T01:26:19;5.90;;;2.57;;
15271;SDS011;7737;51.578;7.268;2023-04-03T01:28:47;7.87;;;2.73;;
15271;SDS011;7737;51.578;7.268;2023-04-03T01:31:16;5.13;;;2.40;;
15271;SDS011;7737;51.578;7.268;2023-04-03T01:33:49;5.70;;;2.30;;
15271;SDS011;7737;51.578;7.268;2023-04-03T01:36:17;5.07;;;2.50;;
15271;SDS011;7737;51.578;7.268;2023-04-03T01:38:45;4.30;;;2.27;;
15271;SDS011;7737;51.578;7.268;2023-04-03T01:41:12;4.20;;;1.90;;
15271;SDS011;7737;51.578;7.268;2023-04-03T01:43:38;5.87;;;2.30;;
15271;SDS011;7737;51.578;7.268;2023-04-03T01:46:05;6.50;;;2.50;;
15271;SDS011;7737;51.578;7.268;2023-04-03T01:51:00;8.50;;;2.53;;
15271;SDS011;7737;51.578;7.268;2023-04-03T01:53:26;6.13;;;2.20;;
15271;SDS011;7737;51.578;7.268;2023-04-03T01:55:53;5.10;;;2.30;;
15271;SDS011;7737;51.578;7.268;2023-04-03T01:58:19;6.10;;;2.67;;
15271;SDS011;7737;51.578;7.268;2023-04-03T02:00:46;6.23;;;2.40;;
15271;SDS011;7737;51.578;7.268;2023-04-03T02:03:13;5.67;;;2.47;;
15271;SDS011;7737;51.578;7.268;2023-04-03T02:05:40;5.57;;;2.20;;
15271;SDS011;7737;51.578;7.268;2023-04-03T02:08:08;4.33;;;2.50;;
15271;SDS011;7737;51.578;7.268;2023-04-03T02:10:34;4.20;;;1.97;;
15271;SDS011;7737;51.578;7.268;2023-04-03T02:13:01;6.20;;;2.30;;
15271;SDS011;7737;51.578;7.268;2023-04-03T02:15:27;6.60;;;2.10;;
15271;SDS011;7737;51.578;7.268;2023-04-03T02:17:54;5.27;;;2.10;;
15271;SDS011;7737;51.578;7.268;2023-04-03T02:20:20;4.87;;;2.10;;
15271;SDS011;7737;51.578;7.268;2023-04-03T02:22:47;6.20;;;2.07;;
15271;SDS011;7737;51.578;7.268;2023-04-03T02:25:15;7.73;;;2.20;;
15271;SDS011;7737;51.578;7.268;2023-04-03T02:27:43;4.77;;;2.00;;
15271;SDS011;7737;51.578;7.268;2023-04-03T02:30:10;5.80;;;2.10;;
15271;SDS011;7737;51.578;7.268;2023-04-03T02:32:37;5.33;;;1.93;;
15271;SDS011;7737;51.578;7.268;2023-04-03T02:35:05;6.50;;;2.30;;
15271;SDS011;7737;51.578;7.268;2023-04-03T02:37:32;6.67;;;2.20;;
15271;SDS011;7737;51.578;7.268;2023-04-03T02:39:58;3.53;;;1.43;;
15271;SDS011;7737;51.578;7.268;2023-04-03T02:42:26;4.57;;;1.63;;
15271;SDS011;7737;51.578;7.268;2023-04-03T02:44:53;6.13;;;2.03;;
15271;SDS011;7737;51.578;7.268;2023-04-03T02:47:20;4.93;;;1.83;;
15271;SDS011;7737;51.578;7.268;2023-04-03T02:49:47;4.73;;;1.70;;
15271;SDS011;7737;51.578;7.268;2023-04-03T02:52:14;5.40;;;1.73;;
15271;SDS011;7737;51.578;7.268;2023-04-03T02:54:41;6.40;;;1.90;;
15271;SDS011;7737;51.578;7.268;2023-04-03T02:57:07;4.70;;;1.80;;
15271;SDS011;7737;51.578;7.268;2023-04-03T02:59:36;6.50;;;1.90;;
15271;SDS011;7737;51.578;7.268;2023-04-03T03:02:05;3.80;;;1.60;;
15271;SDS011;7737;51.578;7.268;2023-04-03T03:04:32;6.10;;;1.70;;
15271;SDS011;7737;51.578;7.268;2023-04-03T03:06:58;3.90;;;1.50;;
15271;SDS011;7737;51.578;7.268;2023-04-03T03:09:25;6.13;;;2.10;;
15271;SDS011;7737;51.578;7.268;2023-04-03T03:11:52;8.67;;;2.10;;
15271;SDS011;7737;51.578;7.268;2023-04-03T03:14:18;7.53;;;1.90;;
15271;SDS011;7737;51.578;7.268;2023-04-03T03:16:46;7.63;;;2.37;;
15271;SDS011;7737;51.578;7.268;2023-04-03T03:19:13;5.97;;;1.97;;
15271;SDS011;7737;51.578;7.268;2023-04-03T03:21:39;6.30;;;1.97;;
15271;SDS011;7737;51.578;7.268;2023-04-03T03:24:06;7.43;;;2.10;;
15271;SDS011;7737;51.578;7.268;2023-04-03T03:26:33;4.07;;;1.87;;
15271;SDS011;7737;51.578;7.268;2023-04-03T03:28:59;4.97;;;1.87;;
15271;SDS011;7737;51.578;7.268;2023-04-03T03:31:26;7.70;;;2.13;;
15271;SDS011;7737;51.578;7.268;2023-04-03T03:33:54;5.73;;;2.07;;
15271;SDS011;7737;51.578;7.268;2023-04-03T03:36:20;7.67;;;2.37;;
15271;SDS011;7737;51.578;7.268;2023-04-03T03:38:47;5.47;;;1.90;;
15271;SDS011;7737;51.578;7.268;2023-04-03T03:41:13;5.97;;;1.77;;
15271;SDS011;7737;51.578;7.268;2023-04-03T03:43:40;10.33;;;3.20;;
15271;SDS011;7737;51.578;7.268;2023-04-03T03:46:06;6.00;;;2.40;;
15271;SDS011;7737;51.578;7.268;2023-04-03T03:48:33;5.20;;;2.17;;
15271;SDS011;7737;51.578;7.268;2023-04-03T03:51:01;4.90;;;1.90;;
15271;SDS011;7737;51.578;7.268;2023-04-03T03:53:27;4.47;;;1.90;;
15271;SDS011;7737;51.578;7.268;2023-04-03T03:55:54;5.77;;;2.10;;
15271;SDS011;7737;51.578;7.268;2023-04-03T03:58:20;4.83;;;1.83;;
15271;SDS011;7737;51.578;7.268;2023-04-03T04:00:46;6.57;;;2.07;;
15271;SDS011;7737;51.578;7.268;2023-04-03T04:03:13;6.23;;;2.30;;
15271;SDS011;7737;51.578;7.268;2023-04-03T04:05:39;7.13;;;2.43;;
15271;SDS011;7737;51.578;7.268;2023-04-03T04:08:07;7.27;;;2.53;;
15271;SDS011;7737;51.578;7.268;2023-04-03T04:10:34;6.83;;;2.20;;
15271;SDS011;7737;51.578;7.268;2023-04-03T04:13:02;6.17;;;2.10;;
15271;SDS011;7737;51.578;7.268;2023-04-03T04:15:28;6.40;;;2.00;;
15271;SDS011;7737;51.578;7.268;2023-04-03T04:17:56;5.13;;;2.20;;
15271;SDS011;7737;51.578;7.268;2023-04-03T04:20:23;6.17;;;2.47;;
15271;SDS011;7737;51.578;7.268;2023-04-03T04:22:49;6.40;;;2.10;;
15271;SDS011;7737;51.578;7.268;2023-04-03T04:25:17;7.43;;;2.37;;
15271;SDS011;7737;51.578;7.268;2023-04-03T04:27:43;5.03;;;1.80;;
15271;SDS011;7737;51.578;7.268;2023-04-03T04:30:10;5.30;;;2.10;;
15271;SDS011;7737;51.578;7.268;2023-04-03T04:32:38;9.30;;;1.77;;
15271;SDS011;7737;51.578;7.268;2023-04-03T04:35:04;6.30;;;2.27;;
15271;SDS011;7737;51.578;7.268;2023-04-03T04:37:31;5.83;;;2.10;;
15271;SDS011;7737;51.578;7.268;2023-04-03T04:39:58;3.50;;;1.67;;
15271;SDS011;7737;51.578;7.268;2023-04-03T04:42:26;7.80;;;2.23;;
15271;SDS011;7737;51.578;7.268;2023-04-03T04:44:53;5.37;;;2.07;;
15271;SDS011;7737;51.578;7.268;2023-04-03T04:47:19;7.40;;;2.07;;
15271;SDS011;7737;51.578;7.268;2023-04-03T04:49:45;7.13;;;2.30;;
15271;SDS011;7737;51.578;7.268;2023-04-03T04:52:13;4.40;;;2.00;;
15271;SDS011;7737;51.578;7.268;2023-04-03T04:54:39;4.63;;;2.07;;
15271;SDS011;7737;51.578;7.268;2023-04-03T04:57:06;5.70;;;1.93;;
15271;SDS011;7737;51.578;7.268;2023-04-03T04:59:34;6.57;;;2.23;;
15271;SDS011;7737;51.578;7.268;2023-04-03T05:02:00;7.43;;;2.20;;
15271;SDS011;7737;51.578;7.268;2023-04-03T05:04:27;6.90;;;2.03;;
15271;SDS011;7737;51.578;7.268;2023-04-03T05:06:53;6.13;;;2.30;;
15271;SDS011;7737;51.578;7.268;2023-04-03T05:09:20;13.67;;;2.30;;
15271;SDS011;7737;51.578;7.268;2023-04-03T05:11:46;5.40;;;2.30;;
15271;SDS011;7737;51.578;7.268;2023-04-03T05:14:13;6.63;;;2.37;;
15271;SDS011;7737;51.578;7.268;2023-04-03T05:16:40;9.73;;;2.30;;
15271;SDS011;7737;51.578;7.268;2023-04-03T05:19:07;7.03;;;2.00;;
15271;SDS011;7737;51.578;7.268;2023-04-03T05:21:34;7.23;;;2.17;;
15271;SDS011;7737;51.578;7.268;2023-04-03T05:24:00;8.77;;;2.20;;
15271;SDS011;7737;51.578;7.268;2023-04-03T05:26:28;6.17;;;2.40;;
15271;SDS011;7737;51.578;7.268;2023-04-03T05:28:55;4.53;;;2.20;;
15271;SDS011;7737;51.578;7.268;2023-04-03T05:31:21;8.23;;;2.70;;
15271;SDS011;7737;51.578;7.268;2023-04-03T05:33:49;7.90;;;2.40;;
15271;SDS011;7737;51.578;7.268;2023-04-03T05:36:16;6.10;;;2.43;;
15271;SDS011;7737;51.578;7.268;2023-04-03T05:38:42;9.33;;;2.97;;
15271;SDS011;7737;51.578;7.268;2023-04-03T05:41:09;7.73;;;2.50;;
15271;SDS011;7737;51.578;7.268;2023-04-03T05:43:35;7.23;;;2.70;;
15271;SDS011;7737;51.578;7.268;2023-04-03T05:46:04;6.33;;;2.17;;
15271;SDS011;7737;51.578;7.268;2023-04-03T05:48:32;5.23;;;2.50;;
15271;SDS011;7737;51.578;7.268;2023-04-03T05:51:01;6.80;;;2.30;;
15271;SDS011;7737;51.578;7.268;2023-04-03T05:53:28;6.80;;;2.37;;
15271;SDS011;7737;51.578;7.268;2023-04-03T05:55:57;7.53;;;2.63;;
15271;SDS011;7737;51.578;7.268;2023-04-03T05:58:24;5.80;;;2.20;;
15271;SDS011;7737;51.578;7.268;2023-04-03T06:00:50;6.80;;;2.50;;
15271;SDS011;7737;51.578;7.268;2023-04-03T06:03:17;8.10;;;2.63;;
15271;SDS011;7737;51.578;7.268;2023-04-03T06:05:43;6.37;;;2.50;;
15271;SDS011;7737;51.578;7.268;2023-04-03T06:08:12;8.83;;;2.77;;
15271;SDS011;7737;51.578;7.268;2023-04-03T06:10:39;8.57;;;2.10;;
15271;SDS011;7737;51.578;7.268;2023-04-03T06:13:06;5.10;;;2.13;;
15271;SDS011;7737;51.578;7.268;2023-04-03T06:15:33;5.90;;;2.20;;
15271;SDS011;7737;51.578;7.268;2023-04-03T06:17:59;5.60;;;2.23;;
15271;SDS011;7737;51.578;7.268;2023-04-03T06:20:26;3.53;;;2.00;;
15271;SDS011;7737;51.578;7.268;2023-04-03T06:22:52;5.63;;;2.53;;
15271;SDS011;7737;51.578;7.268;2023-04-03T06:25:20;6.17;;;2.27;;
15271;SDS011;7737;51.578;7.268;2023-04-03T06:27:47;5.07;;;1.90;;
15271;SDS011;7737;51.578;7.268;2023-04-03T06:30:13;6.37;;;2.00;;
15271;SDS011;7737;51.578;7.268;2023-04-03T06:32:40;8.27;;;2.37;;
15271;SDS011;7737;51.578;7.268;2023-04-03T06:35:08;8.80;;;2.67;;
15271;SDS011;7737;51.578;7.268;2023-04-03T06:37:35;7.83;;;2.77;;
15271;SDS011;7737;51.578;7.268;2023-04-03T06:40:01;6.90;;;2.67;;
15271;SDS011;7737;51.578;7.268;2023-04-03T06:42:29;8.30;;;2.53;;
15271;SDS011;7737;51.578;7.268;2023-04-03T06:44:56;7.50;;;2.67;;
15271;SDS011;7737;51.578;7.268;2023-04-03T06:47:22;7.97;;;2.53;;
15271;SDS011;7737;51.578;7.268;2023-04-03T06:49:49;6.97;;;2.70;;
15271;SDS011;7737;51.578;7.268;2023-04-03T06:52:16;4.77;;;2.40;;
15271;SDS011;7737;51.578;7.268;2023-04-03T06:54:42;5.47;;;2.73;;
15271;SDS011;7737;51.578;7.268;2023-04-03T06:57:09;7.83;;;2.50;;
15271;SDS011;7737;51.578;7.268;2023-04-03T06:59:37;5.33;;;2.40;;
15271;SDS011;7737;51.578;7.268;2023-04-03T07:02:03;7.07;;;2.20;;
15271;SDS011;7737;51.578;7.268;2023-04-03T07:04:30;5.37;;;2.40;;
15271;SDS011;7737;51.578;7.268;2023-04-03T07:06:57;13.53;;;2.30;;
15271;SDS011;7737;51.578;7.268;2023-04-03T07:09:23;5.10;;;2.10;;
15271;SDS011;7737;51.578;7.268;2023-04-03T07:11:50;6.03;;;2.47;;
15271;SDS011;7737;51.578;7.268;2023-04-03T07:14:16;7.03;;;2.10;;
15271;SDS011;7737;51.578;7.268;2023-04-03T07:16:44;5.17;;;2.70;;
15271;SDS011;7737;51.578;7.268;2023-04-03T07:19:11;8.67;;;2.33;;
15271;SDS011;7737;51.578;7.268;2023-04-03T07:21:37;5.90;;;2.33;;
15271;SDS011;7737;51.578;7.268;2023-04-03T07:24:05;5.17;;;2.33;;
15271;SDS011;7737;51.578;7.268;2023-04-03T07:26:32;5.33;;;2.20;;
15271;SDS011;7737;51.578;7.268;2023-04-03T07:28:58;6.50;;;2.30;;
15271;SDS011;7737;51.578;7.268;2023-04-03T07:31:25;4.23;;;2.00;;
15271;SDS011;7737;51.578;7.268;2023-04-03T07:33:53;7.40;;;2.30;;
15271;SDS011;7737;51.578;7.268;2023-04-03T07:36:20;7.63;;;2.70;;
15271;SDS011;7737;51.578;7.268;2023-04-03T07:38:49;6.30;;;2.30;;
15271;SDS011;7737;51.578;7.268;2023-04-03T07:41:16;6.20;;;2.30;;
15271;SDS011;7737;51.578;7.268;2023-04-03T07:43:45;5.63;;;2.20;;
15271;SDS011;7737;51.578;7.268;2023-04-03T07:46:12;6.30;;;2.77;;
15271;SDS011;7737;51.578;7.268;2023-04-03T07:48:38;9.30;;;2.87;;
15271;SDS011;7737;51.578;7.268;2023-04-03T07:51:06;4.87;;;2.20;;
15271;SDS011;7737;51.578;7.268;2023-04-03T07:53:32;7.77;;;1.90;;
15271;SDS011;7737;51.578;7.268;2023-04-03T07:55:59;5.20;;;2.07;;
15271;SDS011;7737;51.578;7.268;2023-04-03T07:58:27;6.53;;;2.20;;
15271;SDS011;7737;51.578;7.268;2023-04-03T08:00:54;4.83;;;2.07;;
15271;SDS011;7737;51.578;7.268;2023-04-03T08:03:21;7.73;;;2.33;;
15271;SDS011;7737;51.578;7.268;2023-04-03T08:05:48;5.63;;;2.10;;
15271;SDS011;7737;51.578;7.268;2023-04-03T08:08:17;6.63;;;2.17;;
15271;SDS011;7737;51.578;7.268;2023-04-03T08:10:47;7.27;;;2.30;;
15271;SDS011;7737;51.578;7.268;2023-04-03T08:13:15;6.00;;;2.20;;
15271;SDS011;7737;51.578;7.268;2023-04-03T08:15:41;5.00;;;2.13;;
15271;SDS011;7737;51.578;7.268;2023-04-03T08:18:08;4.57;;;2.13;;
15271;SDS011;7737;51.578;7.268;2023-04-03T08:20:35;4.87;;;2.37;;
15271;SDS011;7737;51.578;7.268;2023-04-03T08:23:02;4.60;;;2.10;;
15271;SDS011;7737;51.578;7.268;2023-04-03T08:25:30;5.67;;;2.07;;
15271;SDS011;7737;51.578;7.268;2023-04-03T08:27:56;4.23;;;2.10;;
15271;SDS011;7737;51.578;7.268;2023-04-03T08:30:23;4.13;;;1.70;;
15271;SDS011;7737;51.578;7.268;2023-04-03T08:32:50;7.43;;;2.63;;
15271;SDS011;7737;51.578;7.268;2023-04-03T08:35:16;3.23;;;1.63;;
15271;SDS011;7737;51.578;7.268;2023-04-03T08:37:44;6.50;;;2.00;;
15271;SDS011;7737;51.578;7.268;2023-04-03T08:40:13;3.53;;;1.50;;
15271;SDS011;7737;51.578;7.268;2023-04-03T08:42:44;5.70;;;1.67;;
15271;SDS011;7737;51.578;7.268;2023-04-03T08:45:27;3.07;;;1.40;;
15271;SDS011;7737;51.578;7.268;2023-04-03T08:48:08;5.43;;;1.70;;
15271;SDS011;7737;51.578;7.268;2023-04-03T08:50:39;3.33;;;1.87;;
15271;SDS011;7737;51.578;7.268;2023-04-03T08:53:11;5.57;;;1.87;;
15271;SDS011;7737;51.578;7.268;2023-04-03T08:55:42;3.83;;;1.73;;
15271;SDS011;7737;51.578;7.268;2023-04-03T08:58:12;5.37;;;1.90;;
15271;SDS011;7737;51.578;7.268;2023-04-03T09:00:43;6.70;;;2.20;;
15271;SDS011;7737;51.578;7.268;2023-04-03T09:03:12;8.47;;;1.80;;
15271;SDS011;7737;51.578;7.268;2023-04-03T09:05:42;4.57;;;1.97;;
15271;SDS011;7737;51.578;7.268;2023-04-03T09:08:14;2.83;;;1.30;;
15271;SDS011;7737;51.578;7.268;2023-04-03T09:10:48;4.77;;;1.10;;
15271;SDS011;7737;51.578;7.268;2023-04-03T09:13:23;3.97;;;1.30;;
15271;SDS011;7737;51.578;7.268;2023-04-03T09:15:56;4.47;;;1.30;;
15271;SDS011;7737;51.578;7.268;2023-04-03T09:18:25;3.47;;;1.47;;
15271;SDS011;7737;51.578;7.268;2023-04-03T09:20:58;3.73;;;1.17;;
15271;SDS011;7737;51.578;7.268;2023-04-03T09:23:32;3.37;;;1.20;;
15271;SDS011;7737;51.578;7.268;2023-04-03T09:26:05;2.73;;;1.10;;
15271;SDS011;7737;51.578;7.268;2023-04-03T09:28:37;4.50;;;1.37;;
15271;SDS011;7737;51.578;7.268;2023-04-03T09:31:11;3.95;;;1.10;;
15271;SDS011;7737;51.578;7.268;2023-04-03T09:33:45;3.23;;;1.33;;
15271;SDS011;7737;51.578;7.268;2023-04-03T09:36:12;2.67;;;0.97;;
15271;SDS011;7737;51.578;7.268;2023-04-03T09:38:39;4.47;;;1.30;;
15271;SDS011;7737;51.578;7.268;2023-04-03T09:41:07;3.13;;;0.90;;
15271;SDS011;7737;51.578;7.268;2023-04-03T09:43:43;2.40;;;1.13;;
15271;SDS011;7737;51.578;7.268;2023-04-03T09:46:24;2.60;;;1.10;;
15271;SDS011;7737;51.578;7.268;2023-04-03T09:48:55;2.43;;;1.10;;
15271;SDS011;7737;51.578;7.268;2023-04-03T09:51:24;2.47;;;1.00;;
15271;SDS011;7737;51.578;7.268;2023-04-03T09:53:53;2.33;;;0.80;;
15271;SDS011;7737;51.578;7.268;2023-04-03T09:56:21;3.37;;;1.00;;
15271;SDS011;7737;51.578;7.268;2023-04-03T09:58:53;3.63;;;1.13;;
15271;SDS011;7737;51.578;7.268;2023-04-03T10:01:34;2.70;;;1.30;;
15271;SDS011;7737;51.578;7.268;2023-04-03T10:04:05;3.00;;;1.00;;
15271;SDS011;7737;51.578;7.268;2023-04-03T10:06:34;2.87;;;1.30;;
15271;SDS011;7737;51.578;7.268;2023-04-03T10:09:03;4.17;;;1.30;;
15271;SDS011;7737;51.578;7.268;2023-04-03T10:11:39;3.50;;;1.10;;
15271;SDS011;7737;51.578;7.268;2023-04-03T10:14:26;3.57;;;1.20;;
15271;SDS011;7737;51.578;7.268;2023-04-03T10:16:55;1.77;;;0.83;;
15271;SDS011;7737;51.578;7.268;2023-04-03T10:19:36;3.63;;;1.00;;
15271;SDS011;7737;51.578;7.268;2023-04-03T10:22:16;3.20;;;1.20;;
15271;SDS011;7737;51.578;7.268;2023-04-03T10:24:50;2.77;;;1.20;;
15271;SDS011;7737;51.578;7.268;2023-04-03T10:27:22;3.60;;;1.13;;
15271;SDS011;7737;51.578;7.268;2023-04-03T10:30:01;2.83;;;1.20;;
15271;SDS011;7737;51.578;7.268;2023-04-03T10:32:42;2.43;;;1.20;;
15271;SDS011;7737;51.578;7.268;2023-04-03T10:35:25;3.57;;;1.00;;
15271;SDS011;7737;51.578;7.268;2023-04-03T10:38:04;3.45;;;1.15;;
15271;SDS011;7737;51.578;7.268;2023-04-03T10:40:39;1.80;;;0.90;;
15271;SDS011;7737;51.578;7.268;2023-04-03T10:43:15;2.23;;;1.00;;
15271;SDS011;7737;51.578;7.268;2023-04-03T10:45:51;2.60;;;1.00;;
15271;SDS011;7737;51.578;7.268;2023-04-03T10:48:29;3.47;;;1.10;;
15271;SDS011;7737;51.578;7.268;2023-04-03T10:51:09;2.20;;;1.10;;
15271;SDS011;7737;51.578;7.268;2023-04-03T10:53:48;5.77;;;1.27;;
15271;SDS011;7737;51.578;7.268;2023-04-03T10:56:24;4.73;;;1.17;;
15271;SDS011;7737;51.578;7.268;2023-04-03T10:58:58;2.77;;;1.10;;
15271;SDS011;7737;51.578;7.268;2023-04-03T11:01:36;3.50;;;1.20;;
15271;SDS011;7737;51.578;7.268;2023-04-03T11:04:07;3.15;;;1.08;;
15271;SDS011;7737;51.578;7.268;2023-04-03T11:06:37;3.17;;;0.70;;
15271;SDS011;7737;51.578;7.268;2023-04-03T11:09:11;3.27;;;1.00;;
15271;SDS011;7737;51.578;7.268;2023-04-03T11:11:46;2.20;;;0.90;;
15271;SDS011;7737;51.578;7.268;2023-04-03T11:14:14;3.67;;;1.33;;
15271;SDS011;7737;51.578;7.268;2023-04-03T11:16:50;2.03;;;0.87;;
15271;SDS011;7737;51.578;7.268;2023-04-03T11:19:25;2.15;;;0.82;;
15271;SDS011;7737;51.578;7.268;2023-04-03T11:22:01;2.30;;;0.90;;
15271;SDS011;7737;51.578;7.268;2023-04-03T11:24:33;3.17;;;1.02;;
15271;SDS011;7737;51.578;7.268;2023-04-03T11:27:05;2.15;;;1.00;;
15271;SDS011;7737;51.578;7.268;2023-04-03T11:29:36;2.70;;;0.90;;
15271;SDS011;7737;51.578;7.268;2023-04-03T11:32:16;1.60;;;0.80;;
15271;SDS011;7737;51.578;7.268;2023-04-03T11:34:58;3.00;;;1.33;;
15271;SDS011;7737;51.578;7.268;2023-04-03T11:37:28;2.72;;;1.00;;
15271;SDS011;7737;51.578;7.268;2023-04-03T11:40:02;1.35;;;0.80;;
15271;SDS011;7737;51.578;7.268;2023-04-03T11:42:33;2.60;;;0.97;;
15271;SDS011;7737;51.578;7.268;2023-04-03T11:48:02;3.53;;;1.15;;
15271;SDS011;7737;51.578;7.268;2023-04-03T11:50:41;1.65;;;0.93;;
15271;SDS011;7737;51.578;7.268;2023-04-03T11:56:01;3.22;;;1.00;;
15271;SDS011;7737;51.578;7.268;2023-04-03T11:58:43;3.53;;;0.82;;
15271;SDS011;7737;51.578;7.268;2023-04-03T12:01:44;2.65;;;1.00;;
15271;SDS011;7737;51.578;7.268;2023-04-03T12:04:14;2.17;;;0.75;;
15271;SDS011;7737;51.578;7.268;2023-04-03T12:12:31;1.80;;;1.00;;
15271;SDS011;7737;51.578;7.268;2023-04-03T12:15:24;2.38;;;0.90;;
15271;SDS011;7737;51.578;7.268;2023-04-03T12:21:10;3.60;;;1.10;;
15271;SDS011;7737;51.578;7.268;2023-04-03T12:26:30;3.65;;;1.40;;
15271;SDS011;7737;51.578;7.268;2023-04-03T12:29:01;2.75;;;1.10;;
15271;SDS011;7737;51.578;7.268;2023-04-03T12:31:38;5.07;;;1.10;;
15271;SDS011;7737;51.578;7.268;2023-04-03T12:34:17;1.88;;;1.00;;
15271;SDS011;7737;51.578;7.268;2023-04-03T12:37:03;2.72;;;1.20;;
15271;SDS011;7737;51.578;7.268;2023-04-03T12:39:44;2.88;;;1.20;;
15271;SDS011;7737;51.578;7.268;2023-04-03T12:42:22;3.08;;;1.13;;
15271;SDS011;7737;51.578;7.268;2023-04-03T12:45:00;1.90;;;1.08;;
15271;SDS011;7737;51.578;7.268;2023-04-03T12:47:33;2.13;;;1.00;;
15271;SDS011;7737;51.578;7.268;2023-04-03T12:50:03;1.55;;;0.80;;
15271;SDS011;7737;51.578;7.268;2023-04-03T12:52:37;2.50;;;0.80;;
15271;SDS011;7737;51.578;7.268;2023-04-03T12:55:12;2.05;;;0.90;;
15271;SDS011;7737;51.578;7.268;2023-04-03T12:57:41;1.63;;;0.88;;
15271;SDS011;7737;51.578;7.268;2023-04-03T13:02:58;2.88;;;1.02;;
15271;SDS011;7737;51.578;7.268;2023-04-03T13:05:25;1.95;;;0.90;;
15271;SDS011;7737;51.578;7.268;2023-04-03T13:07:54;1.95;;;1.00;;
15271;SDS011;7737;51.578;7.268;2023-04-03T13:10:24;1.70;;;0.82;;
15271;SDS011;7737;51.578;7.268;2023-04-03T13:12:51;3.10;;;1.00;;
15271;SDS011;7737;51.578;7.268;2023-04-03T13:15:20;1.67;;;0.77;;
15271;SDS011;7737;51.578;7.268;2023-04-03T13:17:48;4.13;;;1.00;;
15271;SDS011;7737;51.578;7.268;2023-04-03T13:20:19;2.00;;;1.02;;
15271;SDS011;7737;51.578;7.268;2023-04-03T13:22:50;2.45;;;1.10;;
15271;SDS011;7737;51.578;7.268;2023-04-03T13:25:23;2.22;;;1.00;;
15271;SDS011;7737;51.578;7.268;2023-04-03T13:27:52;4.57;;;1.08;;
15271;SDS011;7737;51.578;7.268;2023-04-03T13:30:20;2.30;;;0.98;;
15271;SDS011;7737;51.578;7.268;2023-04-03T13:32:50;2.53;;;0.90;;
15271;SDS011;7737;51.578;7.268;2023-04-03T13:35:24;2.03;;;0.90;;
15271;SDS011;7737;51.578;7.268;2023-04-03T13:37:55;1.92;;;0.95;;
15271;SDS011;7737;51.578;7.268;2023-04-03T13:40:22;3.75;;;1.20;;
15271;SDS011;7737;51.578;7.268;2023-04-03T13:42:58;2.53;;;0.85;;
15271;SDS011;7737;51.578;7.268;2023-04-03T13:45:27;2.38;;;1.00;;
15271;SDS011;7737;51.578;7.268;2023-04-03T13:48:06;2.58;;;1.10;;
15271;SDS011;7737;51.578;7.268;2023-04-03T13:50:50;2.90;;;1.30;;
15271;SDS011;7737;51.578;7.268;2023-04-03T13:53:20;2.78;;;1.17;;
15271;SDS011;7737;51.578;7.268;2023-04-03T13:55:55;2.75;;;1.35;;
15271;SDS011;7737;51.578;7.268;2023-04-03T13:58:24;2.97;;;1.00;;
15271;SDS011;7737;51.578;7.268;2023-04-03T14:00:53;3.22;;;1.45;;
15271;SDS011;7737;51.578;7.268;2023-04-03T14:03:22;2.60;;;1.17;;
15271;SDS011;7737;51.578;7.268;2023-04-03T14:05:51;3.33;;;1.20;;
15271;SDS011;7737;51.578;7.268;2023-04-03T14:08:18;3.85;;;1.40;;
15271;SDS011;7737;51.578;7.268;2023-04-03T14:10:47;3.30;;;1.30;;
15271;SDS011;7737;51.578;7.268;2023-04-03T14:13:15;3.05;;;1.10;;
15271;SDS011;7737;51.578;7.268;2023-04-03T14:15:44;2.20;;;1.00;;
15271;SDS011;7737;51.578;7.268;2023-04-03T14:18:13;3.83;;;1.20;;
15271;SDS011;7737;51.578;7.268;2023-04-03T14:20:41;2.22;;;1.10;;
15271;SDS011;7737;51.578;7.268;2023-04-03T14:23:08;2.88;;;1.27;;
15271;SDS011;7737;51.578;7.268;2023-04-03T14:25:36;3.40;;;1.30;;
15271;SDS011;7737;51.578;7.268;2023-04-03T14:28:12;4.65;;;1.55;;
15271;SDS011;7737;51.578;7.268;2023-04-03T14:30:41;1.88;;;1.10;;
15271;SDS011;7737;51.578;7.268;2023-04-03T14:33:09;2.15;;;1.10;;
15271;SDS011;7737;51.578;7.268;2023-04-03T14:35:39;2.65;;;0.98;;
15271;SDS011;7737;51.578;7.268;2023-04-03T14:38:05;4.00;;;1.23;;
15271;SDS011;7737;51.578;7.268;2023-04-03T14:40:46;3.63;;;1.00;;
15271;SDS011;7737;51.578;7.268;2023-04-03T14:43:14;2.13;;;1.15;;
15271;SDS011;7737;51.578;7.268;2023-04-03T14:45:41;3.42;;;1.30;;
15271;SDS011;7737;51.578;7.268;2023-04-03T14:48:09;2.75;;;1.20;;
15271;SDS011;7737;51.578;7.268;2023-04-03T14:50:37;2.78;;;1.20;;
15271;SDS011;7737;51.578;7.268;2023-04-03T14:53:03;3.30;;;1.30;;
15271;SDS011;7737;51.578;7.268;2023-04-03T14:55:30;3.35;;;1.30;;
15271;SDS011;7737;51.578;7.268;2023-04-03T14:57:56;4.28;;;1.38;;
15271;SDS011;7737;51.578;7.268;2023-04-03T15:00:24;3.00;;;1.40;;
15271;SDS011;7737;51.578;7.268;2023-04-03T15:02:51;2.85;;;1.15;;
15271;SDS011;7737;51.578;7.268;2023-04-03T15:05:18;2.85;;;1.23;;
15271;SDS011;7737;51.578;7.268;2023-04-03T15:07:46;2.60;;;1.20;;
15271;SDS011;7737;51.578;7.268;2023-04-03T15:10:17;2.80;;;1.50;;
15271;SDS011;7737;51.578;7.268;2023-04-03T15:12:46;12.05;;;6.45;;
15271;SDS011;7737;51.578;7.268;2023-04-03T15:15:13;3.03;;;1.45;;
15271;SDS011;7737;51.578;7.268;2023-04-03T15:17:42;2.88;;;1.10;;
15271;SDS011;7737;51.578;7.268;2023-04-03T15:20:11;2.47;;;1.17;;
15271;SDS011;7737;51.578;7.268;2023-04-03T15:22:39;2.60;;;1.10;;
15271;SDS011;7737;51.578;7.268;2023-04-03T15:25:06;1.75;;;1.20;;
15271;SDS011;7737;51.578;7.268;2023-04-03T15:27:33;2.90;;;0.98;;
15271;SDS011;7737;51.578;7.268;2023-04-03T15:30:00;2.60;;;1.23;;
15271;SDS011;7737;51.578;7.268;2023-04-03T15:32:27;2.53;;;0.95;;
15271;SDS011;7737;51.578;7.268;2023-04-03T15:34:55;2.85;;;1.08;;
15271;SDS011;7737;51.578;7.268;2023-04-03T15:37:21;2.70;;;1.20;;
15271;SDS011;7737;51.578;7.268;2023-04-03T15:39:48;2.92;;;1.13;;
15271;SDS011;7737;51.578;7.268;2023-04-03T15:42:14;3.45;;;1.25;;
15271;SDS011;7737;51.578;7.268;2023-04-03T15:44:41;3.22;;;1.30;;